Time;durP1;ratioP1;P1;durP2;ratioP2;P2;SDS_P1;SDS_P2;PMS_P1;PMS_P2;Temp;Humidity;BMP_temperature;BMP_pressure;BME280_temperature;BME280_humidity;BME280_pressure;Samples;Min_cycle;Max_cycle;Signal;HPM_P1;HPM_P2
2022/02/04 00:08:14;;;;;;;4.97;1.85;;;;;;;17.32;52.11;101122.84;5021482;28;20439;-78
2022/02/04 00:24:01;;;;;;;3.80;1.50;;;;;;;17.31;51.62;101127.19;5021429;28;19917;-77
2022/02/04 00:26:32;;;;;;;3.17;1.65;;;;;;;17.30;51.78;101114.19;5001072;28;20721;-78
2022/02/04 00:29:19;;;;;;;3.95;1.70;;;;;;;17.31;51.77;101119.38;4988461;28;20025;-78
2022/02/04 00:31:51;;;;;;;4.30;1.80;;;;;;;17.30;51.68;101109.81;5005141;28;20033;-78
2022/02/04 00:34:19;;;;;;;3.35;1.60;;;;;;;17.30;51.76;101117.63;5025225;28;20033;-78
2022/02/04 00:39:23;;;;;;;3.67;1.77;;;;;;;17.30;51.84;101112.44;5020438;28;20074;-78
2022/02/04 00:41:50;;;;;;;2.95;1.50;;;;;;;17.29;51.78;101113.31;5037698;28;20034;-77
2022/02/04 00:44:27;;;;;;;2.78;1.65;;;;;;;17.28;51.87;101106.38;5003464;28;20053;-78
2022/02/04 00:47:01;;;;;;;3.38;1.40;;;;;;;17.28;51.84;101112.44;5019687;28;20060;-77
2022/02/04 00:54:41;;;;;;;3.63;1.65;;;;;;;17.28;51.64;101102.03;5000237;28;20124;-77
2022/02/04 01:13:41;;;;;;;;;;;;;;;17.28;51.61;101076.00;5036338;28;20540;-80
2022/02/04 01:27:22;;;;;;;;;;;;;;;17.28;51.37;101078.63;5011976;28;20048;-81
2022/02/04 01:32:24;;;;;;;3.05;1.40;;;;;;;17.26;51.66;101071.69;5003696;28;20480;-81
2022/02/04 01:34:50;;;;;;;2.72;1.40;;;;;;;17.26;51.43;101072.56;5023270;28;20036;-81
2022/02/04 01:37:15;;;;;;;2.20;1.30;;;;;;;17.26;51.46;101064.75;5010351;28;20037;-80
2022/02/04 01:39:40;;;;;;;4.28;1.60;;;;;;;17.26;51.72;101067.34;5027080;28;20032;-80
2022/02/04 01:42:07;;;;;;;3.20;1.30;;;;;;;17.26;51.62;101072.56;5026228;28;20040;-80
2022/02/04 01:44:32;;;;;;;3.13;1.20;;;;;;;17.26;51.55;101058.69;5042398;28;20029;-80
2022/02/04 01:46:58;;;;;;;2.40;1.52;;;;;;;17.25;51.53;101062.19;4999639;28;20036;-80
2022/02/04 01:49:24;;;;;;;2.85;1.38;;;;;;;17.26;51.51;101061.28;4999827;28;20053;-80
2022/02/04 01:51:50;;;;;;;4.05;1.50;;;;;;;17.24;51.81;101058.69;5015369;28;20132;-80
2022/02/04 01:54:16;;;;;;;3.05;1.45;;;;;;;17.25;51.40;101051.78;5039786;28;20057;-80
2022/02/04 01:56:43;;;;;;;3.72;1.90;;;;;;;17.24;51.30;101056.09;5038157;28;20038;-80
2022/02/04 01:59:08;;;;;;;2.90;1.50;;;;;;;17.24;51.53;101050.03;5021156;28;20021;-80
2022/02/04 02:01:34;;;;;;;3.10;1.60;;;;;;;17.25;51.71;101049.19;5001619;28;20044;-80
2022/02/04 02:04:01;;;;;;;2.80;1.40;;;;;;;17.24;51.58;101045.69;5017633;28;20047;-80
2022/02/04 02:06:51;;;;;;;3.10;1.30;;;;;;;17.24;51.66;101040.47;5037639;28;20064;-80
2022/02/04 02:09:17;;;;;;;3.25;1.35;;;;;;;17.25;51.66;101029.22;5018725;28;20026;-80
2022/02/04 02:11:43;;;;;;;3.85;1.35;;;;;;;17.24;51.45;101027.47;5036413;28;20472;-80
2022/02/04 02:14:12;;;;;;;2.67;1.17;;;;;;;17.24;51.34;101030.06;5037010;28;20018;-80
2022/02/04 02:46:28;;;;;;;3.75;1.42;;;;;;;17.21;51.44;100991.09;5044192;28;20026;-81
2022/02/04 02:58:56;;;;;;;3.17;1.27;;;;;;;17.22;51.51;100978.94;5041964;28;20041;-80
2022/02/04 03:01:21;;;;;;;2.92;1.38;;;;;;;17.21;51.42;100974.63;5023808;28;20040;-80
2022/02/04 03:03:53;;;;;;;3.33;1.20;;;;;;;17.22;51.48;100960.75;5011030;28;20033;-80
2022/02/04 03:06:18;;;;;;;3.35;1.25;;;;;;;17.20;51.28;100965.97;5012923;28;20030;-80
2022/02/04 03:08:43;;;;;;;2.95;1.20;;;;;;;17.21;51.48;100975.50;5021169;28;20041;-81
2022/02/04 03:11:09;;;;;;;2.80;1.45;;;;;;;17.20;51.39;100954.69;5000164;28;20041;-80
2022/02/04 03:13:35;;;;;;;3.00;1.25;;;;;;;17.20;51.46;100962.50;5022131;28;20123;-80
2022/02/04 03:16:06;;;;;;;2.67;1.20;;;;;;;17.22;51.23;100963.34;5009056;28;20472;-80
2022/02/04 03:18:35;;;;;;;4.00;1.40;;;;;;;17.19;51.37;100955.56;5026896;28;20527;-80
2022/02/04 03:21:10;;;;;;;2.45;1.08;;;;;;;17.20;51.44;100952.97;5025451;28;20030;-81
2022/02/04 03:23:38;;;;;;;2.30;1.20;;;;;;;17.21;51.53;100959.03;5008710;28;20056;-81
2022/02/04 03:26:23;;;;;;;3.17;1.60;;;;;;;17.20;51.67;100957.28;5025113;28;20048;-81
2022/02/04 03:28:48;;;;;;;2.78;1.30;;;;;;;17.19;51.52;100950.38;5005997;28;20093;-80
2022/02/04 03:31:13;;;;;;;3.90;1.55;;;;;;;17.19;51.29;100958.19;5008989;28;20070;-80
2022/02/04 03:33:41;;;;;;;3.22;1.23;;;;;;;17.19;51.41;100958.19;5028551;28;20075;-80
2022/02/04 03:36:07;;;;;;;3.03;1.10;;;;;;;17.18;51.59;100957.31;5041912;28;20121;-80
2022/02/04 03:38:32;;;;;;;3.45;1.40;;;;;;;17.19;51.48;100952.97;5004777;28;20073;-80
2022/02/04 03:40:57;;;;;;;4.28;1.40;;;;;;;17.18;51.73;100946.03;5010108;28;20042;-80
2022/02/04 03:43:23;;;;;;;2.35;1.20;;;;;;;17.18;51.41;100946.03;5011383;28;20029;-80
2022/02/04 03:45:48;;;;;;;3.38;1.10;;;;;;;17.17;51.37;100945.16;4990076;28;20029;-80
2022/02/04 03:48:13;;;;;;;3.15;1.35;;;;;;;17.17;51.64;100939.97;5022568;28;20428;-80
2022/02/04 03:50:39;;;;;;;3.60;1.50;;;;;;;17.18;51.32;100943.44;5006155;28;20033;-80
2022/02/04 03:53:13;;;;;;;2.63;0.93;;;;;;;17.18;51.56;100943.44;5011688;28;20451;-80
2022/02/04 03:55:39;;;;;;;4.75;1.30;;;;;;;17.17;51.53;100945.16;5016482;28;20038;-81
2022/02/04 03:58:05;;;;;;;5.05;1.30;;;;;;;17.17;51.38;100939.13;4996996;28;20026;-80
2022/02/04 04:00:30;;;;;;;2.28;1.20;;;;;;;17.17;51.33;100931.31;5022591;28;20471;-80
2022/02/04 04:02:56;;;;;;;3.83;1.10;;;;;;;17.17;51.39;100923.50;5016871;28;20033;-79
2022/02/04 04:05:21;;;;;;;2.60;1.10;;;;;;;17.17;51.41;100926.97;4970169;28;20492;-80
2022/02/04 04:07:49;;;;;;;3.53;1.30;;;;;;;17.17;51.46;100918.31;4973213;28;20033;-80
2022/02/04 04:10:39;;;;;;;4.38;1.67;;;;;;;17.16;51.60;100912.25;5006631;28;20030;-80
2022/02/04 04:13:03;;;;;;;3.08;1.23;;;;;;;17.16;51.44;100919.16;5044307;28;20030;-80
2022/02/04 04:15:29;;;;;;;2.30;1.05;;;;;;;17.16;51.51;100926.97;5042591;28;20087;-80
2022/02/04 04:17:54;;;;;;;2.97;1.00;;;;;;;17.17;51.34;100928.72;5024537;28;20391;-80
2022/02/04 04:20:22;;;;;;;3.50;1.25;;;;;;;17.15;51.17;100922.66;5010319;28;20029;-81
2022/02/04 04:22:49;;;;;;;4.05;1.30;;;;;;;17.15;51.46;100923.50;5023529;28;20108;-80
2022/02/04 04:25:15;;;;;;;3.15;1.10;;;;;;;17.15;51.65;100925.25;5007424;28;20049;-80
2022/02/04 04:27:42;;;;;;;2.60;1.25;;;;;;;17.16;51.56;100924.38;5023436;28;20075;-82
2022/02/04 04:30:09;;;;;;;3.38;1.20;;;;;;;17.14;51.35;100926.16;4990505;28;20128;-80
2022/02/04 04:32:34;;;;;;;4.03;1.50;;;;;;;17.14;51.28;100923.53;5022168;28;20498;-80
2022/02/04 04:35:00;;;;;;;3.53;1.20;;;;;;;17.15;51.43;100920.06;5021247;28;20029;-79
2022/02/04 04:37:26;;;;;;;3.67;1.20;;;;;;;17.15;51.66;100914.84;5020635;28;20110;-80
2022/02/04 04:42:31;;;;;;;4.18;1.20;;;;;;;17.14;51.38;100908.81;5021897;28;20034;-80
2022/02/04 04:45:38;;;;;;;3.20;1.05;;;;;;;17.14;51.50;100897.53;5023229;28;20029;-81
2022/02/04 05:26:30;;;;;;;2.50;1.00;;;;;;;17.12;51.39;100850.75;4990708;28;20040;-81
2022/02/04 05:28:59;;;;;;;2.92;1.05;;;;;;;17.11;51.52;100851.59;4986588;28;20101;-81
2022/02/04 05:31:25;;;;;;;3.97;1.10;;;;;;;17.11;51.38;100849.00;5000513;28;20053;-81
2022/02/04 05:33:51;;;;;;;2.60;1.00;;;;;;;17.12;51.38;100860.28;5025449;28;20037;-80
2022/02/04 05:36:17;;;;;;;2.67;1.10;;;;;;;17.12;51.15;100844.69;5020893;28;20065;-80
2022/02/04 05:38:42;;;;;;;3.42;1.30;;;;;;;17.12;51.46;100852.47;5037723;28;20029;-81
2022/02/04 05:41:10;;;;;;;2.03;1.08;;;;;;;17.12;51.27;100847.28;4986815;28;20036;-81
2022/02/04 05:43:39;;;;;;;3.13;1.10;;;;;;;17.10;51.34;100838.63;5019317;28;20498;-81
2022/02/04 05:46:28;;;;;;;3.80;1.30;;;;;;;17.11;51.04;100842.94;5020738;28;20033;-79
2022/02/04 05:48:55;;;;;;;2.35;1.05;;;;;;;17.10;51.16;100831.69;5037968;28;20033;-79
2022/02/04 05:51:36;;;;;;;2.45;1.10;;;;;;;17.10;51.20;100831.69;5011621;28;20068;-80
2022/02/04 05:56:57;;;;;;;3.25;1.10;;;;;;;17.10;51.25;100836.88;5024994;28;20030;-81
2022/02/04 05:59:34;;;;;;;3.38;1.33;;;;;;;17.09;51.39;100829.94;5017465;28;20026;-79
2022/02/04 06:02:16;;;;;;;2.67;1.10;;;;;;;17.09;50.87;100824.75;5002022;28;20037;-78
2022/02/04 06:05:42;;;;;;;2.55;0.88;;;;;;;17.10;51.38;100817.84;4991516;28;20399;-79
2022/02/04 06:07:37;;;;;;;2.40;1.00;;;;;;;17.11;51.40;100814.34;5025706;28;20050;-79
2022/02/04 06:23:55;;;;;;;24.38;5.95;;;;;;;17.15;51.71;100805.66;5018917;28;20091;-79
2022/02/04 06:26:20;;;;;;;24.05;6.22;;;;;;;17.16;51.76;100815.16;5000425;28;20430;-81
2022/02/04 06:28:46;;;;;;;19.95;5.50;;;;;;;17.16;51.74;100809.97;5015657;28;20048;-77
2022/02/04 06:31:11;;;;;;;18.40;5.03;;;;;;;17.16;51.90;100809.97;5004699;28;20092;-78
2022/02/04 06:33:37;;;;;;;16.15;4.68;;;;;;;17.17;51.90;100812.56;4998957;28;20476;-78
2022/02/04 06:36:03;;;;;;;18.40;4.85;;;;;;;17.18;52.19;100810.81;5012288;28;20113;-77
2022/02/04 06:38:29;;;;;;;19.60;5.35;;;;;;;17.18;52.18;100805.59;5017685;28;20033;-78
2022/02/04 06:40:54;;;;;;;10.90;4.10;;;;;;;17.18;52.32;100805.59;5010484;28;20033;-79
2022/02/04 06:43:20;;;;;;;14.75;4.25;;;;;;;17.18;52.25;100809.09;5021804;28;20032;-80
2022/02/04 06:45:46;;;;;;;14.02;4.28;;;;;;;17.19;52.50;100808.19;4984917;28;20044;-80
2022/02/04 06:48:11;;;;;;;15.50;4.20;;;;;;;17.20;52.18;100803.84;4991533;28;20121;-79
2022/02/04 06:50:36;;;;;;;11.52;3.85;;;;;;;17.19;52.28;100803.00;4979832;28;20112;-79
2022/02/04 06:53:04;;;;;;;11.18;3.42;;;;;;;17.20;52.34;100790.84;5004273;28;20049;-79
2022/02/04 06:55:29;;;;;;;14.68;3.50;;;;;;;17.20;52.26;100796.06;5035665;28;20029;-79
2022/02/04 06:57:56;;;;;;;11.05;3.60;;;;;;;17.21;52.47;100792.59;5036832;28;20030;-79
2022/02/04 07:00:25;;;;;;;13.40;3.70;;;;;;;17.21;52.46;100792.59;5013641;28;20120;-79
2022/02/04 07:02:52;;;;;;;8.65;3.03;;;;;;;17.21;52.37;100796.06;5001203;28;20037;-78
2022/02/04 07:05:17;;;;;;;11.05;3.08;;;;;;;17.21;52.33;100790.00;5001137;28;20083;-79
2022/02/04 07:07:50;;;;;;;10.68;3.20;;;;;;;17.21;52.30;100811.66;5026123;28;20033;-79
2022/02/04 07:10:34;;;;;;;10.43;3.40;;;;;;;17.22;52.32;100799.50;5038081;28;20060;-78
2022/02/04 07:13:28;;;;;;;11.25;3.08;;;;;;;17.22;52.40;100799.50;5039282;28;20029;-79
2022/02/04 07:16:37;;;;;;;9.77;3.20;;;;;;;17.21;52.37;100787.41;5022550;28;20041;-80
2022/02/04 07:21:20;;;;;;;;;;;;;;;17.35;52.25;100780.31;5023402;28;20092;-79
2022/02/04 07:23:46;;;;;;;7.40;3.03;;;;;;;17.38;52.37;100784.66;5001730;28;19916;-79
2022/02/04 07:26:11;;;;;;;8.30;2.70;;;;;;;17.39;52.49;100779.41;4985401;28;20280;-79
2022/02/04 07:28:36;;;;;;;8.70;3.17;;;;;;;17.40;52.27;100775.94;5018522;28;20030;-79
2022/02/04 07:31:04;;;;;;;8.48;3.03;;;;;;;17.44;52.30;100789.75;5005406;28;20061;-79
2022/02/04 07:33:45;;;;;;;6.30;2.45;;;;;;;17.42;52.33;100783.72;5006716;28;20033;-79
2022/02/04 07:41:39;;;;;;;;;;;;;;;17.48;51.96;100765.44;5027002;28;20395;-81
2022/02/04 07:44:05;;;;;;;15.40;4.50;;;;;;;17.49;52.07;100772.41;5039262;28;19968;-81
2022/02/04 07:46:30;;;;;;;16.08;4.75;;;;;;;17.51;52.00;100765.44;5022510;28;20021;-81
2022/02/04 07:48:56;;;;;;;11.45;3.78;;;;;;;17.53;52.06;100766.28;5022169;28;20041;-81
2022/02/04 07:51:22;;;;;;;13.20;3.70;;;;;;;17.53;51.97;100771.50;5022610;28;20050;-80
2022/02/04 07:53:50;;;;;;;10.98;3.55;;;;;;;17.55;51.81;100758.44;5005906;28;20029;-81
2022/02/04 07:56:20;;;;;;;11.98;3.75;;;;;;;17.55;51.90;100745.44;5006728;28;20036;-82
2022/02/04 07:58:55;;;;;;;14.52;3.50;;;;;;;17.61;52.42;100732.34;5043334;28;20471;-79
2022/02/04 08:01:25;;;;;;;10.70;3.28;;;;;;;17.58;52.25;100732.41;5041337;28;20175;-78
2022/02/04 08:03:58;;;;;;;11.75;3.00;;;;;;;17.58;52.27;100733.25;5024186;28;20104;-78
2022/02/04 08:06:25;;;;;;;10.80;2.80;;;;;;;17.57;52.22;100733.28;5007859;28;20029;-79
2022/02/04 08:09:00;;;;;;;7.97;2.80;;;;;;;17.57;51.85;100738.47;5021657;28;20053;-79
2022/02/04 08:14:16;;;;;;;6.10;2.55;;;;;;;17.59;51.96;100729.75;5022472;28;20041;-76
2022/02/04 08:25:06;;;;;;;10.30;2.58;;;;;;;17.60;51.78;100730.66;5038692;28;20121;-76
2022/02/04 08:30:24;;;;;;;8.93;2.63;;;;;;;17.60;51.75;100717.63;5021159;28;20043;-77
2022/02/04 08:46:59;;;;;;;;;;;;;;;17.66;51.64;100699.34;5019879;28;20057;-77
2022/02/04 08:54:48;;;;;;;4.22;1.77;;;;;;;17.71;51.47;100691.50;5036648;28;20029;-76
2022/02/04 09:02:29;;;;;;;3.80;2.08;;;;;;;17.75;51.35;100688.81;5037337;28;20033;-77
2022/02/04 09:04:56;;;;;;;4.70;2.05;;;;;;;17.75;51.36;100686.22;5005127;28;20505;-77
2022/02/04 09:07:25;;;;;;;5.22;2.03;;;;;;;17.74;51.36;100666.28;5019256;28;20034;-76
2022/02/04 09:09:54;;;;;;;8.23;1.90;;;;;;;17.77;51.50;100673.16;5018844;28;20040;-76
2022/02/04 09:20:30;;;;;;;4.07;1.75;;;;;;;17.73;51.54;100655.91;5042469;28;20055;-77
2022/02/04 09:22:55;;;;;;;4.10;1.73;;;;;;;17.72;51.74;100642.00;5025771;28;20121;-77
2022/02/04 09:25:21;;;;;;;8.63;2.10;;;;;;;17.74;51.77;100642.84;5022985;28;20056;-76
2022/02/04 09:27:46;;;;;;;4.32;1.75;;;;;;;17.75;51.55;100644.59;4988676;28;20101;-76
2022/02/04 09:30:15;;;;;;;5.15;1.90;;;;;;;17.76;51.27;100638.47;5004425;28;20036;-77
2022/02/04 09:32:43;;;;;;;4.93;1.77;;;;;;;17.78;51.42;100633.25;5037905;28;20521;-76
2022/02/04 09:35:12;;;;;;;3.47;1.50;;;;;;;17.77;51.32;100629.81;5037428;28;20065;-76
2022/02/04 09:37:37;;;;;;;3.35;1.48;;;;;;;17.78;51.19;100630.66;5019954;28;20025;-76
2022/02/04 09:40:05;;;;;;;3.40;1.30;;;;;;;17.80;51.53;100642.78;5036746;28;20025;-77
2022/02/04 09:42:32;;;;;;;2.83;1.33;;;;;;;17.82;51.42;100632.38;5019398;28;20072;-76
2022/02/04 09:44:57;;;;;;;3.67;1.60;;;;;;;17.80;51.36;100631.50;5037321;28;20064;-77
2022/02/04 09:47:25;;;;;;;4.10;1.63;;;;;;;17.80;51.62;100616.75;5002995;28;20029;-77
2022/02/04 09:49:58;;;;;;;2.50;1.23;;;;;;;17.82;51.30;100621.97;5018888;28;20356;-77
2022/02/04 10:22:06;;;;;;;4.32;1.40;;;;;;;17.93;50.98;100581.00;5018835;28;20036;-76
2022/02/04 10:24:33;;;;;;;1.98;0.98;;;;;;;17.91;51.09;100587.13;5017887;28;20025;-76
2022/02/04 10:27:16;;;;;;;2.20;1.17;;;;;;;17.88;51.06;100564.63;5018245;28;20112;-76
2022/02/04 10:29:43;;;;;;;4.95;1.23;;;;;;;17.85;51.67;100562.88;5036340;28;20101;-77
2022/02/04 10:32:09;;;;;;;4.65;1.20;;;;;;;17.85;51.39;100573.31;5019804;28;20025;-76
2022/02/04 10:34:37;;;;;;;2.78;1.00;;;;;;;17.85;51.44;100577.66;5004526;28;20064;-77
2022/02/04 10:40:17;;;;;;;2.53;1.10;;;;;;;17.80;51.44;100563.84;5015680;28;20403;-77
2022/02/04 10:45:48;;;;;;;2.45;1.10;;;;;;;17.78;51.44;100537.81;5022733;28;20071;-77
2022/02/04 11:01:36;;;;;;;3.63;1.10;;;;;;;17.73;51.37;100551.81;5021554;28;20036;-78
2022/02/04 11:04:13;;;;;;;3.00;1.27;;;;;;;17.73;51.37;100531.84;5035369;28;20037;-78
2022/02/04 11:07:08;;;;;;;3.25;1.20;;;;;;;17.71;51.71;100533.59;5035924;28;20045;-78
2022/02/04 11:31:27;;;;;;;2.72;0.90;;;;;;;17.72;50.98;100462.44;4994882;28;20029;-79
2022/02/04 11:34:27;;;;;;;4.82;1.05;;;;;;;17.72;50.94;100480.66;5000342;28;20033;-78
2022/02/04 11:51:53;;;;;;;2.28;1.00;;;;;;;17.74;50.67;100442.44;5024808;28;20060;-78
2022/02/04 11:56:55;;;;;;;3.05;0.85;;;;;;;17.73;51.02;100432.09;5025171;28;20084;-78
2022/02/04 11:59:35;;;;;;;1.83;0.90;;;;;;;17.73;50.92;100425.13;5042017;28;20036;-78
2022/02/04 12:02:00;;;;;;;1.50;0.90;;;;;;;17.72;50.93;100425.16;5019302;28;20029;-77
2022/02/04 12:04:26;;;;;;;1.80;0.90;;;;;;;17.72;50.98;100420.78;5002011;28;20030;-78
2022/02/04 12:06:53;;;;;;;1.77;0.85;;;;;;;17.70;50.95;100425.16;5020730;28;20033;-78
2022/02/04 12:09:39;;;;;;;2.10;0.80;;;;;;;17.69;50.81;100416.50;5005746;28;20037;-78
2022/02/04 12:12:05;;;;;;;2.03;0.95;;;;;;;17.71;50.87;100421.69;5008225;28;20499;-79
2022/02/04 12:14:32;;;;;;;2.83;1.10;;;;;;;17.72;51.15;100410.38;5003916;28;20123;-79
2022/02/04 12:17:12;;;;;;;1.75;0.90;;;;;;;17.74;50.90;100420.78;5001767;28;20491;-79
2022/02/04 12:19:46;;;;;;;2.40;0.98;;;;;;;17.74;50.93;100411.22;5019245;28;20052;-79
2022/02/04 12:22:12;;;;;;;3.15;1.13;;;;;;;17.73;50.87;100413.88;5019586;28;20022;-79
2022/02/04 12:24:40;;;;;;;2.00;0.82;;;;;;;17.72;51.18;100389.56;4987988;28;20029;-79
2022/02/04 12:27:27;;;;;;;2.13;0.80;;;;;;;17.71;51.08;100385.25;5019314;28;20484;-80
2022/02/04 12:29:55;;;;;;;1.77;0.90;;;;;;;17.72;51.13;100381.75;5032796;28;20025;-79
2022/02/04 12:32:20;;;;;;;2.70;0.77;;;;;;;17.71;51.14;100419.09;5016631;28;20033;-81
2022/02/04 12:34:47;;;;;;;2.97;0.80;;;;;;;17.70;51.32;100453.78;4982946;28;20034;-79
2022/02/04 12:37:16;;;;;;;2.22;1.00;;;;;;;17.67;51.10;100465.09;4983163;28;20117;-80
2022/02/04 12:39:42;;;;;;;2.33;0.95;;;;;;;17.67;51.22;100474.66;5001057;28;20101;-80
2022/02/04 12:42:09;;;;;;;2.70;1.00;;;;;;;17.66;51.31;100481.63;5000369;28;20053;-78
2022/02/04 12:44:37;;;;;;;3.10;1.00;;;;;;;17.65;51.26;100482.50;5016667;28;20025;-78
2022/02/04 12:47:05;;;;;;;1.83;0.73;;;;;;;17.65;51.16;100485.09;5016541;28;20026;-78
2022/02/04 12:49:33;;;;;;;3.13;0.90;;;;;;;17.65;51.24;100484.25;5016489;28;20034;-78
2022/02/04 12:52:18;;;;;;;1.80;0.70;;;;;;;17.65;51.13;100494.66;5016112;28;20052;-78
2022/02/04 12:55:04;;;;;;;1.83;0.90;;;;;;;17.67;51.01;100496.34;4984261;28;20378;-78
2022/02/04 12:57:37;;;;;;;1.30;0.70;;;;;;;17.68;51.18;100512.81;5016272;28;20021;-78
2022/02/04 13:10:37;;;;;;;1.90;0.80;;;;;;;17.72;50.77;100524.03;5016129;28;20034;-78
2022/02/04 13:13:09;;;;;;;1.67;0.82;;;;;;;17.74;50.87;100527.47;4998729;28;20084;-78
2022/02/04 13:15:36;;;;;;;1.85;0.90;;;;;;;17.73;50.62;100524.03;4998027;28;20030;-79
2022/02/04 13:18:06;;;;;;;3.15;0.80;;;;;;;17.74;50.54;100530.94;4998806;28;20064;-79
2022/02/04 13:20:33;;;;;;;1.48;0.73;;;;;;;17.76;50.60;100543.94;4999456;28;20026;-79
2022/02/04 13:23:05;;;;;;;3.15;1.10;;;;;;;17.75;50.80;100545.69;4982891;28;20026;-78
2022/02/04 13:25:32;;;;;;;2.90;1.20;;;;;;;17.77;50.47;100545.63;4997994;28;20435;-78
2022/02/04 13:28:12;;;;;;;2.85;1.33;;;;;;;17.77;50.71;100538.72;4996364;28;20224;-78
2022/02/04 13:30:48;;;;;;;7.90;2.97;;;;;;;17.79;50.56;100555.16;4999015;28;20026;-79
2022/02/04 13:33:16;;;;;;;8.90;3.67;;;;;;;17.78;50.46;100573.41;5000276;28;20481;-79
2022/02/04 13:35:43;;;;;;;9.52;3.78;;;;;;;17.79;50.46;100562.97;5000296;28;20047;-80
2022/02/04 13:38:23;;;;;;;10.48;4.30;;;;;;;17.80;50.38;100572.50;5018136;28;20025;-78
2022/02/04 13:41:18;;;;;;;12.15;5.50;;;;;;;17.81;50.46;100562.94;5015069;28;20080;-78
2022/02/04 13:46:39;;;;;;;14.95;5.55;;;;;;;17.82;50.48;100572.50;5016835;28;20464;-78
2022/02/04 13:49:28;;;;;;;18.83;6.90;;;;;;;17.81;50.40;100579.44;4982504;28;20490;-78
2022/02/04 13:52:09;;;;;;;13.15;6.07;;;;;;;17.79;50.42;100588.13;5014814;28;20053;-78
2022/02/04 13:54:52;;;;;;;17.85;6.78;;;;;;;17.80;50.34;100601.13;5014780;28;20026;-78
2022/02/04 13:57:27;;;;;;;16.38;6.93;;;;;;;17.80;50.63;100598.53;4997135;28;20025;-78
2022/02/04 14:00:57;;;;;;;17.63;6.85;;;;;;;17.80;50.26;100602.88;5014668;28;20457;-78
2022/02/04 14:03:18;;;;;;;20.58;6.63;;;;;;;17.81;50.44;100618.47;5008789;28;20485;-78
2022/02/04 14:06:07;;;;;;;15.98;6.85;;;;;;;17.81;50.52;100621.06;4997298;28;20030;-78
2022/02/04 14:08:50;;;;;;;17.90;7.22;;;;;;;17.81;50.20;100623.69;4997165;28;20384;-79
2022/02/04 14:11:34;;;;;;;18.33;7.55;;;;;;;17.83;50.27;100619.34;5015597;28;20494;-78
2022/02/04 14:14:03;;;;;;;15.75;6.65;;;;;;;17.80;50.45;100634.97;5016383;28;20040;-78
2022/02/04 14:16:29;;;;;;;19.60;6.95;;;;;;;17.80;50.61;100645.38;4998771;28;20033;-78
2022/02/04 14:18:54;;;;;;;16.15;6.90;;;;;;;17.80;50.53;100653.19;4999151;28;20388;-79
2022/02/04 14:21:20;;;;;;;16.23;6.40;;;;;;;17.82;50.40;100648.84;4999631;28;20068;-78
2022/02/04 14:23:49;;;;;;;17.17;6.60;;;;;;;17.82;50.51;100655.81;5000802;28;20030;-78
2022/02/04 14:26:22;;;;;;;15.68;6.78;;;;;;;17.80;50.31;100661.00;4985151;28;20037;-78
2022/02/04 14:28:53;;;;;;;14.52;6.22;;;;;;;17.80;50.50;100649.72;5002257;28;20084;-78
2022/02/04 14:31:28;;;;;;;16.48;6.82;;;;;;;17.80;50.27;100653.19;4985894;28;20033;-78
2022/02/04 14:36:47;;;;;;;14.73;6.07;;;;;;;17.80;50.47;100666.19;5019065;28;20097;-78
2022/02/04 14:50:35;;;;;;;;;;;;;;;17.77;50.33;100720.91;4989166;28;20061;-78
2022/02/04 14:53:08;;;;;;;11.55;5.70;;;;;;;17.76;50.31;100720.91;5016575;28;20008;-76
2022/02/04 15:01:21;;;;;;;14.05;5.25;;;;;;;17.77;50.44;100754.75;5001763;28;20052;-76
2022/02/04 15:04:00;;;;;;;17.00;5.65;;;;;;;17.76;50.34;100759.97;5015448;28;20044;-76
2022/02/04 15:06:32;;;;;;;10.00;5.07;;;;;;;17.74;50.32;100754.75;4983408;28;20030;-77
2022/02/04 15:08:58;;;;;;;13.82;5.22;;;;;;;17.76;50.35;100758.22;4999163;28;20034;-77
2022/02/04 15:11:30;;;;;;;11.35;4.85;;;;;;;17.75;50.16;100769.50;4998073;28;20124;-77
2022/02/04 15:13:57;;;;;;;11.27;4.45;;;;;;;17.76;50.35;100779.03;4982624;28;20546;-78
2022/02/04 15:16:23;;;;;;;10.10;4.82;;;;;;;17.76;50.27;100788.59;5015122;28;20033;-77
2022/02/04 15:18:48;;;;;;;10.98;5.00;;;;;;;17.76;50.49;100796.41;4981333;28;20109;-76
2022/02/04 15:21:19;;;;;;;10.50;4.65;;;;;;;17.75;50.26;100795.53;4997508;28;20034;-77
2022/02/04 15:23:49;;;;;;;9.75;4.30;;;;;;;17.76;50.38;100797.25;5016688;28;20460;-76
2022/02/04 15:26:16;;;;;;;9.93;4.32;;;;;;;17.77;50.47;100801.59;4998326;28;20097;-78
2022/02/04 15:28:48;;;;;;;9.10;4.32;;;;;;;17.78;50.47;100802.44;5013907;28;20491;-78
2022/02/04 15:33:54;;;;;;;10.52;4.20;;;;;;;17.77;50.40;100822.41;5014045;28;20037;-77
2022/02/04 15:36:27;;;;;;;9.15;3.97;;;;;;;17.77;50.46;100826.72;4997588;28;20030;-78
2022/02/04 15:38:53;;;;;;;11.17;4.40;;;;;;;17.77;50.32;100827.63;4983521;28;20026;-76
2022/02/04 15:41:21;;;;;;;10.32;3.95;;;;;;;17.79;50.29;100838.88;4997222;28;20692;-76
2022/02/04 15:43:53;;;;;;;10.00;3.83;;;;;;;17.79;50.23;100840.59;4980298;28;20026;-76
2022/02/04 15:46:48;;;;;;;11.63;3.80;;;;;;;17.87;50.29;100836.22;4995769;28;20062;-78
2022/02/04 15:49:23;;;;;;;8.48;3.83;;;;;;;17.92;50.11;100838.75;4983844;28;20033;-79
2022/02/04 15:54:23;;;;;;;8.15;3.53;;;;;;;17.90;50.18;100851.81;5017375;28;20029;-78
2022/02/04 16:04:54;;;;;;;8.32;3.45;;;;;;;17.87;50.18;100867.44;4986227;28;20469;-78
2022/02/04 16:07:23;;;;;;;7.55;3.05;;;;;;;17.87;50.05;100881.31;4968691;28;20041;-79
2022/02/04 16:10:01;;;;;;;7.70;3.35;;;;;;;17.91;50.00;100883.91;5000499;28;20033;-78
2022/02/04 16:12:49;;;;;;;7.80;3.25;;;;;;;17.89;50.22;100892.59;5017300;28;20530;-79
2022/02/04 16:15:31;;;;;;;5.93;3.17;;;;;;;17.89;50.00;100900.41;4987210;28;20041;-78
2022/02/04 16:17:58;;;;;;;7.82;3.03;;;;;;;17.86;50.20;100903.03;4973165;28;20065;-78
2022/02/04 16:20:39;;;;;;;7.65;3.05;;;;;;;17.87;49.88;100925.59;4968924;28;20084;-78
2022/02/04 16:23:10;;;;;;;6.70;3.10;;;;;;;17.87;50.09;100927.31;4986365;28;20125;-78
2022/02/04 16:28:41;;;;;;;5.50;2.70;;;;;;;17.87;49.79;100941.19;4986232;28;20041;-78
2022/02/04 16:31:08;;;;;;;5.13;2.70;;;;;;;17.87;49.90;100936.00;4987342;28;20022;-78
2022/02/04 16:33:34;;;;;;;6.07;2.65;;;;;;;17.86;50.00;100942.09;5018677;28;20068;-77
2022/02/04 16:36:04;;;;;;;6.15;2.55;;;;;;;17.86;49.64;100943.84;4985395;28;20042;-78
2022/02/04 16:38:31;;;;;;;6.10;2.70;;;;;;;17.84;49.85;100954.25;5018407;28;20022;-78
2022/02/04 16:41:03;;;;;;;5.30;2.38;;;;;;;17.86;50.00;100955.09;5017538;28;20041;-78
2022/02/04 16:43:29;;;;;;;6.68;2.83;;;;;;;17.85;49.65;100955.97;5001951;28;20495;-78
2022/02/04 16:45:55;;;;;;;5.68;2.17;;;;;;;17.84;49.65;100962.06;5018189;28;20431;-78
2022/02/04 16:48:21;;;;;;;4.80;2.42;;;;;;;17.85;49.72;100962.94;5000484;28;20033;-77
2022/02/04 16:50:49;;;;;;;6.20;2.55;;;;;;;17.86;49.67;100967.28;4999930;28;20108;-77
2022/02/04 16:53:15;;;;;;;6.10;2.33;;;;;;;17.85;49.62;100987.22;5017584;28;20049;-78
2022/02/04 16:55:40;;;;;;;5.30;2.50;;;;;;;17.86;49.74;100978.53;4988788;28;20026;-82
2022/02/04 16:58:05;;;;;;;6.07;2.33;;;;;;;17.85;49.67;100978.53;4999957;28;20030;-81
2022/02/04 17:00:31;;;;;;;4.43;2.30;;;;;;;17.85;49.56;100981.16;4984083;28;20033;-81
2022/02/04 17:03:07;;;;;;;5.78;2.38;;;;;;;17.85;49.55;100987.22;4990016;28;20021;-81
2022/02/04 17:05:40;;;;;;;4.07;2.20;;;;;;;17.86;49.65;100988.09;5004877;28;20029;-80
2022/02/04 17:08:07;;;;;;;4.57;1.92;;;;;;;17.86;49.59;100996.75;5008129;28;20388;-80
2022/02/04 17:10:35;;;;;;;4.68;2.25;;;;;;;17.86;49.59;101001.97;4989958;28;20037;-81
2022/02/04 17:13:01;;;;;;;5.53;2.05;;;;;;;17.86;49.76;101007.19;5004227;28;20021;-81
2022/02/04 17:15:38;;;;;;;4.65;2.20;;;;;;;17.86;49.68;101007.19;5004519;28;20044;-82
2022/02/04 17:18:06;;;;;;;4.80;2.17;;;;;;;17.86;49.84;101020.19;5010417;28;20029;-80
2022/02/04 17:20:31;;;;;;;6.15;2.38;;;;;;;17.85;49.74;101023.66;5009529;28;20026;-82
2022/02/04 17:23:01;;;;;;;6.63;2.00;;;;;;;17.87;49.68;101023.66;4989267;28;20030;-79
2022/02/04 17:25:28;;;;;;;5.18;2.00;;;;;;;17.87;49.78;101019.31;5019995;28;20112;-80
2022/02/04 17:27:56;;;;;;;4.93;2.10;;;;;;;17.86;49.46;101028.00;5002866;28;20119;-83